Time;durP1;ratioP1;P1;durP2;ratioP2;P2;SDS_P1;SDS_P2;PMS_P1;PMS_P2;Temp;Humidity;BMP_temperature;BMP_pressure;BME280_temperature;BME280_humidity;BME280_pressure;Samples;Min_cycle;Max_cycle;Signal;HPM_P1;HPM_P2
2023/06/08 00:01:54;;;;;;;;;16.33;16.00;;;;;;;;5084076;27;45753;-75
2023/06/08 00:04:21;;;;;;;;;17.75;16.50;;;;;;;;5094869;27;45471;-75
2023/06/08 00:06:49;;;;;;;;;15.50;15.25;;;;;;;;5089082;27;45534;-75
2023/06/08 00:09:14;;;;;;;;;21.00;20.75;;;;;;;;5085785;27;45294;-75
2023/06/08 00:11:40;;;;;;;;;17.00;16.00;;;;;;;;5100738;27;45294;-75
2023/06/08 00:14:05;;;;;;;;;14.75;14.00;;;;;;;;5085612;27;47240;-75
2023/06/08 00:16:30;;;;;;;;;17.25;16.75;;;;;;;;5087006;27;45546;-75
2023/06/08 00:18:56;;;;;;;;;19.33;17.67;;;;;;;;5100637;27;45333;-75
2023/06/08 00:21:26;;;;;;;;;21.00;19.25;;;;;;;;5094937;27;45720;-74
2023/06/08 00:23:51;;;;;;;;;18.75;18.75;;;;;;;;5089356;27;47420;-75
2023/06/08 00:26:17;;;;;;;;;19.25;18.50;;;;;;;;5097690;27;45238;-75
2023/06/08 00:28:42;;;;;;;;;18.50;16.25;;;;;;;;5091971;27;45398;-75
2023/06/08 00:31:07;;;;;;;;;17.67;17.00;;;;;;;;5079072;27;46842;-76
2023/06/08 00:33:34;;;;;;;;;20.00;17.67;;;;;;;;5089825;27;47347;-76
2023/06/08 00:36:00;;;;;;;;;19.75;18.50;;;;;;;;5080636;27;45315;-76
2023/06/08 00:38:25;;;;;;;;;17.50;17.00;;;;;;;;5078328;27;45488;-75
2023/06/08 00:40:51;;;;;;;;;13.33;13.33;;;;;;;;5078699;28;45886;-74
2023/06/08 00:43:16;;;;;;;;;18.67;18.00;;;;;;;;5079771;27;45409;-74
2023/06/08 00:45:41;;;;;;;;;22.00;21.67;;;;;;;;5094336;27;45649;-74
2023/06/08 00:48:06;;;;;;;;;19.00;17.33;;;;;;;;5090717;27;45353;-74
2023/06/08 00:50:32;;;;;;;;;18.25;18.25;;;;;;;;5094251;27;45385;-74
2023/06/08 00:52:57;;;;;;;;;23.25;20.75;;;;;;;;5092075;27;46498;-75
2023/06/08 00:55:24;;;;;;;;;19.25;19.25;;;;;;;;5079598;27;45314;-75
2023/06/08 00:57:53;;;;;;;;;21.50;20.00;;;;;;;;5092323;27;45327;-75
2023/06/08 01:00:18;;;;;;;;;16.75;16.50;;;;;;;;5098546;27;45205;-74
2023/06/08 01:02:44;;;;;;;;;15.00;14.00;;;;;;;;5097628;27;46196;-75
2023/06/08 01:05:09;;;;;;;;;19.00;18.00;;;;;;;;5090228;27;45793;-75
2023/06/08 01:07:34;;;;;;;;;22.00;21.00;;;;;;;;5092683;27;45548;-75
2023/06/08 01:10:13;;;;;;;;;21.67;21.67;;;;;;;;5091791;27;46722;-75
2023/06/08 01:12:46;;;;;;;;;23.75;20.00;;;;;;;;5084885;27;46312;-75
2023/06/08 01:15:11;;;;;;;;;18.50;18.00;;;;;;;;5079308;27;45825;-75
2023/06/08 01:17:40;;;;;;;;;22.67;21.67;;;;;;;;5084318;27;45729;-75
2023/06/08 01:20:24;;;;;;;;;23.50;22.75;;;;;;;;5079008;27;45437;-75
2023/06/08 01:23:07;;;;;;;;;24.50;23.25;;;;;;;;5092433;27;45798;-76
2023/06/08 01:25:35;;;;;;;;;24.00;23.25;;;;;;;;5090390;27;45603;-76
2023/06/08 01:28:14;;;;;;;;;20.25;19.25;;;;;;;;5086348;27;45519;-76
2023/06/08 01:30:43;;;;;;;;;22.75;21.75;;;;;;;;5089038;27;45223;-76
2023/06/08 01:33:10;;;;;;;;;20.25;20.25;;;;;;;;5092638;27;45498;-76
2023/06/08 01:35:36;;;;;;;;;20.50;19.75;;;;;;;;5087522;27;45402;-76
2023/06/08 01:38:27;;;;;;;;;23.00;22.25;;;;;;;;5098616;27;45404;-76
2023/06/08 01:40:55;;;;;;;;;20.00;19.50;;;;;;;;5081256;27;45354;-76
2023/06/08 01:43:22;;;;;;;;;21.75;21.00;;;;;;;;5095096;27;45380;-76
2023/06/08 01:45:51;;;;;;;;;20.50;20.50;;;;;;;;5082550;27;45479;-75
2023/06/08 01:48:19;;;;;;;;;24.50;23.25;;;;;;;;5094762;27;45339;-73
2023/06/08 01:50:44;;;;;;;;;25.50;23.75;;;;;;;;5093214;27;45471;-75
2023/06/08 01:53:11;;;;;;;;;24.00;23.75;;;;;;;;5083293;27;46631;-75
2023/06/08 01:55:36;;;;;;;;;22.00;21.00;;;;;;;;5082358;28;45462;-75
2023/06/08 01:58:01;;;;;;;;;23.75;23.00;;;;;;;;5082510;27;45209;-75
2023/06/08 02:00:27;;;;;;;;;22.67;22.00;;;;;;;;5083421;27;45314;-75
2023/06/08 02:02:52;;;;;;;;;24.75;22.00;;;;;;;;5095307;27;45510;-75
2023/06/08 02:05:18;;;;;;;;;21.00;21.00;;;;;;;;5099504;27;45364;-75
2023/06/08 02:07:43;;;;;;;;;19.25;18.75;;;;;;;;5101491;27;45249;-75
2023/06/08 02:10:09;;;;;;;;;25.25;23.50;;;;;;;;5082113;27;45435;-75
2023/06/08 02:12:35;;;;;;;;;31.75;25.00;;;;;;;;5082052;27;46409;-75
2023/06/08 02:15:01;;;;;;;;;21.50;21.25;;;;;;;;5082034;27;45131;-75
2023/06/08 02:17:27;;;;;;;;;26.00;23.75;;;;;;;;5091648;27;45179;-75
2023/06/08 02:19:55;;;;;;;;;26.50;25.50;;;;;;;;5081320;27;45393;-75
2023/06/08 02:22:21;;;;;;;;;29.75;29.00;;;;;;;;5088075;27;45494;-75
2023/06/08 02:24:46;;;;;;;;;24.25;23.25;;;;;;;;5091597;27;45384;-75
2023/06/08 02:27:13;;;;;;;;;24.00;22.25;;;;;;;;5095535;27;45542;-75
2023/06/08 02:29:39;;;;;;;;;20.75;20.25;;;;;;;;5082172;27;45315;-75
2023/06/08 02:32:04;;;;;;;;;24.00;22.50;;;;;;;;5093542;27;48153;-75
2023/06/08 02:34:29;;;;;;;;;24.50;23.00;;;;;;;;5094387;27;45389;-75
2023/06/08 02:36:55;;;;;;;;;24.00;22.00;;;;;;;;5081645;27;45545;-75
2023/06/08 02:39:20;;;;;;;;;22.75;22.00;;;;;;;;5102036;27;45230;-75
2023/06/08 02:41:45;;;;;;;;;24.25;23.50;;;;;;;;5101830;27;45235;-75
2023/06/08 02:44:11;;;;;;;;;23.00;22.00;;;;;;;;5102221;27;45282;-75
2023/06/08 02:46:36;;;;;;;;;26.00;22.33;;;;;;;;5093624;27;45304;-75
2023/06/08 02:49:01;;;;;;;;;23.00;22.00;;;;;;;;5085885;27;46349;-75
2023/06/08 02:51:27;;;;;;;;;26.25;24.75;;;;;;;;5089807;27;46316;-75
2023/06/08 02:53:52;;;;;;;;;22.50;21.75;;;;;;;;5093713;27;45361;-75
2023/06/08 02:56:17;;;;;;;;;20.33;20.00;;;;;;;;5090310;27;45708;-75
2023/06/08 02:58:46;;;;;;;;;27.67;26.67;;;;;;;;5101939;27;45210;-75
2023/06/08 03:01:14;;;;;;;;;27.00;25.50;;;;;;;;5090596;27;46127;-75
2023/06/08 03:03:41;;;;;;;;;30.00;27.75;;;;;;;;5089226;27;45646;-75
2023/06/08 03:06:07;;;;;;;;;22.25;21.50;;;;;;;;5086964;27;45273;-75
2023/06/08 03:08:32;;;;;;;;;22.00;21.50;;;;;;;;5090203;27;46834;-74
2023/06/08 03:10:57;;;;;;;;;27.00;25.00;;;;;;;;5100016;27;45439;-74
2023/06/08 03:13:22;;;;;;;;;27.33;25.00;;;;;;;;5093716;27;45772;-74
2023/06/08 03:15:48;;;;;;;;;23.50;23.00;;;;;;;;5094911;27;45455;-74
2023/06/08 03:18:14;;;;;;;;;21.50;20.25;;;;;;;;5100564;27;45424;-74
2023/06/08 03:20:40;;;;;;;;;26.00;26.00;;;;;;;;5089030;27;45449;-75
2023/06/08 03:23:06;;;;;;;;;23.25;22.75;;;;;;;;5080293;27;45731;-75
2023/06/08 03:25:31;;;;;;;;;24.00;22.75;;;;;;;;5081058;27;45414;-75
2023/06/08 03:27:56;;;;;;;;;28.33;27.00;;;;;;;;5088551;27;45413;-75
2023/06/08 03:30:21;;;;;;;;;23.33;22.33;;;;;;;;5081040;27;46314;-75
2023/06/08 03:32:48;;;;;;;;;25.00;24.00;;;;;;;;5081075;27;45412;-75
2023/06/08 03:35:15;;;;;;;;;27.25;26.25;;;;;;;;5093417;27;45623;-75
2023/06/08 03:37:40;;;;;;;;;25.50;25.00;;;;;;;;5091816;27;45250;-75
2023/06/08 03:40:06;;;;;;;;;25.33;25.00;;;;;;;;5080578;27;45485;-75
2023/06/08 03:42:31;;;;;;;;;28.50;27.25;;;;;;;;5093077;27;45246;-74
2023/06/08 03:44:56;;;;;;;;;30.33;28.67;;;;;;;;5080934;28;45273;-74
2023/06/08 03:47:21;;;;;;;;;24.67;23.00;;;;;;;;5086036;27;45404;-74
2023/06/08 03:49:46;;;;;;;;;22.33;21.33;;;;;;;;5087130;27;45573;-74
2023/06/08 03:52:12;;;;;;;;;24.00;23.00;;;;;;;;5078870;28;45371;-74
2023/06/08 03:54:37;;;;;;;;;28.50;28.25;;;;;;;;5080216;27;45259;-75
2023/06/08 03:57:02;;;;;;;;;30.00;27.33;;;;;;;;5080444;27;45444;-75
2023/06/08 03:59:28;;;;;;;;;27.00;25.33;;;;;;;;5077861;28;46915;-75
2023/06/08 04:01:53;;;;;;;;;28.00;27.33;;;;;;;;5081847;27;45543;-75
2023/06/08 04:04:18;;;;;;;;;28.33;27.00;;;;;;;;5080249;27;46010;-76
2023/06/08 04:06:44;;;;;;;;;33.00;29.67;;;;;;;;5079923;27;45272;-75
2023/06/08 04:09:11;;;;;;;;;29.75;28.75;;;;;;;;5086476;27;47174;-75
2023/06/08 04:11:36;;;;;;;;;28.00;26.25;;;;;;;;5084779;27;45349;-75
2023/06/08 04:14:01;;;;;;;;;30.00;29.67;;;;;;;;5093221;27;45292;-75
2023/06/08 04:16:26;;;;;;;;;23.67;22.67;;;;;;;;5079610;27;45757;-75
2023/06/08 04:18:53;;;;;;;;;32.00;29.67;;;;;;;;5080947;27;46570;-75
2023/06/08 04:21:18;;;;;;;;;26.75;25.00;;;;;;;;5086475;27;45286;-75
2023/06/08 04:23:44;;;;;;;;;31.00;28.67;;;;;;;;5097286;27;45580;-75
2023/06/08 04:26:09;;;;;;;;;28.00;27.25;;;;;;;;5085897;27;45187;-75
2023/06/08 04:28:35;;;;;;;;;29.75;27.00;;;;;;;;5091924;27;45166;-75
2023/06/08 04:31:00;;;;;;;;;29.00;27.25;;;;;;;;5078598;28;45427;-75
2023/06/08 04:33:28;;;;;;;;;31.75;29.00;;;;;;;;5088783;27;45433;-75
2023/06/08 04:35:53;;;;;;;;;30.50;26.75;;;;;;;;5079603;27;45706;-75
2023/06/08 04:38:20;;;;;;;;;33.00;30.00;;;;;;;;5079862;28;45337;-74
2023/06/08 04:40:49;;;;;;;;;33.50;30.75;;;;;;;;5092177;27;45668;-75
2023/06/08 04:43:15;;;;;;;;;32.50;30.25;;;;;;;;5091775;27;45498;-74
2023/06/08 04:45:43;;;;;;;;;36.25;33.25;;;;;;;;5100175;27;45152;-74
2023/06/08 04:48:10;;;;;;;;;40.50;33.00;;;;;;;;5098430;27;46088;-74
2023/06/08 04:50:37;;;;;;;;;36.00;32.25;;;;;;;;5096166;27;45267;-74
2023/06/08 04:53:03;;;;;;;;;37.75;32.50;;;;;;;;5087190;27;45289;-74
2023/06/08 04:55:28;;;;;;;;;29.75;28.25;;;;;;;;5083379;27;45919;-74
2023/06/08 04:57:54;;;;;;;;;36.33;32.33;;;;;;;;5099987;27;45367;-74
2023/06/08 05:00:19;;;;;;;;;42.67;33.67;;;;;;;;5085076;27;45684;-75
2023/06/08 05:02:44;;;;;;;;;35.25;32.00;;;;;;;;5091742;27;45243;-75
2023/06/08 05:05:09;;;;;;;;;41.33;34.00;;;;;;;;5094001;27;46194;-75
2023/06/08 05:07:35;;;;;;;;;31.00;28.67;;;;;;;;5083450;27;45410;-74
2023/06/08 05:10:01;;;;;;;;;32.67;31.33;;;;;;;;5089049;27;45352;-75
2023/06/08 05:12:27;;;;;;;;;39.50;34.50;;;;;;;;5092684;27;45361;-74
2023/06/08 05:14:53;;;;;;;;;43.50;36.75;;;;;;;;5089696;27;45463;-75
2023/06/08 05:17:18;;;;;;;;;36.25;32.25;;;;;;;;5103466;27;45338;-78
2023/06/08 05:19:43;;;;;;;;;42.33;36.00;;;;;;;;5084252;27;45270;-76
2023/06/08 05:22:08;;;;;;;;;36.67;32.67;;;;;;;;5083029;27;45282;-79
2023/06/08 05:24:34;;;;;;;;;37.33;32.67;;;;;;;;5083313;27;45418;-78
2023/06/08 05:26:59;;;;;;;;;30.25;29.25;;;;;;;;5101831;27;46183;-76
2023/06/08 05:29:24;;;;;;;;;32.00;30.50;;;;;;;;5085986;27;45328;-76
2023/06/08 05:31:50;;;;;;;;;36.50;33.25;;;;;;;;5082729;27;45472;-74
2023/06/08 05:34:15;;;;;;;;;40.50;34.75;;;;;;;;5099716;27;45929;-77
2023/06/08 05:36:40;;;;;;;;;34.50;31.75;;;;;;;;5085503;27;45323;-76
2023/06/08 05:39:06;;;;;;;;;38.33;34.00;;;;;;;;5082726;27;45331;-79
2023/06/08 05:41:31;;;;;;;;;41.67;34.67;;;;;;;;5094253;27;45262;-75
2023/06/08 05:43:56;;;;;;;;;44.00;35.33;;;;;;;;5091435;27;45519;-76
2023/06/08 05:46:21;;;;;;;;;34.00;31.67;;;;;;;;5102739;27;46441;-77
2023/06/08 05:48:46;;;;;;;;;35.67;33.33;;;;;;;;5103003;27;45309;-73
2023/06/08 05:51:11;;;;;;;;;43.67;37.33;;;;;;;;5087193;27;45291;-75
2023/06/08 05:53:38;;;;;;;;;43.33;34.67;;;;;;;;5095165;27;45428;-72
2023/06/08 05:56:03;;;;;;;;;31.75;30.50;;;;;;;;5090331;27;45234;-80
2023/06/08 05:58:29;;;;;;;;;42.75;37.50;;;;;;;;5101378;27;45309;-76
2023/06/08 06:00:54;;;;;;;;;33.25;31.25;;;;;;;;5102889;27;45144;-72
2023/06/08 06:03:20;;;;;;;;;42.00;34.50;;;;;;;;5082786;27;45283;-75
2023/06/08 06:05:45;;;;;;;;;44.67;38.67;;;;;;;;5079776;27;47017;-72
2023/06/08 06:08:10;;;;;;;;;39.50;34.00;;;;;;;;5095829;27;45411;-74
2023/06/08 06:10:35;;;;;;;;;43.00;36.67;;;;;;;;5098609;27;45455;-72
2023/06/08 06:13:00;;;;;;;;;40.33;35.00;;;;;;;;5097393;27;45982;-75
2023/06/08 06:15:26;;;;;;;;;36.00;32.67;;;;;;;;5094857;27;46444;-67
2023/06/08 06:17:52;;;;;;;;;35.50;32.50;;;;;;;;5099599;27;45556;-77
2023/06/08 06:20:17;;;;;;;;;42.00;35.33;;;;;;;;5082131;27;45382;-80
2023/06/08 06:22:42;;;;;;;;;34.00;30.50;;;;;;;;5086640;27;45518;-82
2023/06/08 06:25:07;;;;;;;;;39.33;34.67;;;;;;;;5090470;27;46266;-84
2023/06/08 06:27:33;;;;;;;;;36.00;33.50;;;;;;;;5092834;27;46715;-85
2023/06/08 06:29:58;;;;;;;;;40.33;34.67;;;;;;;;5089698;27;45523;-76
2023/06/08 06:32:23;;;;;;;;;45.00;39.00;;;;;;;;5085405;27;45283;-78
2023/06/08 06:34:48;;;;;;;;;32.25;29.25;;;;;;;;5093677;27;46218;-75
2023/06/08 06:37:14;;;;;;;;;39.33;35.00;;;;;;;;5096650;27;45340;-79
2023/06/08 06:39:39;;;;;;;;;32.00;31.25;;;;;;;;5081870;27;45434;-76
2023/06/08 06:42:05;;;;;;;;;39.50;35.00;;;;;;;;5091848;27;45346;-76
2023/06/08 06:44:30;;;;;;;;;37.25;31.25;;;;;;;;5082306;27;47087;-82
2023/06/08 06:46:55;;;;;;;;;40.67;34.00;;;;;;;;5096260;27;45298;-82
2023/06/08 06:49:20;;;;;;;;;30.33;29.67;;;;;;;;5086365;27;45489;-80
2023/06/08 06:51:45;;;;;;;;;38.67;34.67;;;;;;;;5090826;27;46555;-79
2023/06/08 06:54:11;;;;;;;;;43.33;35.33;;;;;;;;5092513;27;45439;-73
2023/06/08 06:56:36;;;;;;;;;36.33;33.33;;;;;;;;5087475;27;45443;-78
2023/06/08 06:59:02;;;;;;;;;38.00;30.67;;;;;;;;5100885;27;45351;-78
2023/06/08 07:01:28;;;;;;;;;45.50;36.75;;;;;;;;5097654;27;45308;-77
2023/06/08 07:03:53;;;;;;;;;45.75;36.25;;;;;;;;5081223;27;45324;-77
2023/06/08 07:06:24;;;;;;;;;38.00;33.67;;;;;;;;5080003;28;45334;-77
2023/06/08 07:08:49;;;;;;;;;35.75;31.50;;;;;;;;5081095;27;45489;-76
2023/06/08 07:11:14;;;;;;;;;45.00;36.25;;;;;;;;5081090;27;45377;-77
2023/06/08 07:13:40;;;;;;;;;37.33;33.00;;;;;;;;5085407;27;46460;-76
2023/06/08 07:16:05;;;;;;;;;34.00;30.33;;;;;;;;5094665;27;45419;-76
2023/06/08 07:18:30;;;;;;;;;31.67;30.33;;;;;;;;5087322;27;45298;-75
2023/06/08 07:20:56;;;;;;;;;37.50;32.75;;;;;;;;5086635;27;45304;-77
2023/06/08 07:23:21;;;;;;;;;35.00;31.33;;;;;;;;5091170;27;45779;-75
2023/06/08 07:25:46;;;;;;;;;39.00;33.33;;;;;;;;5100302;27;45296;-76
2023/06/08 07:28:11;;;;;;;;;26.00;23.33;;;;;;;;5096705;27;45599;-76
2023/06/08 07:30:36;;;;;;;;;44.00;37.00;;;;;;;;5089654;27;45432;-76
2023/06/08 07:33:02;;;;;;;;;39.33;34.67;;;;;;;;5087245;27;48045;-75
2023/06/08 07:35:27;;;;;;;;;31.75;30.75;;;;;;;;5089697;27;45253;-76
2023/06/08 07:37:53;;;;;;;;;43.00;34.50;;;;;;;;5092868;27;45455;-80
2023/06/08 07:40:18;;;;;;;;;37.75;34.00;;;;;;;;5089457;27;45519;-73
2023/06/08 07:42:44;;;;;;;;;34.00;30.50;;;;;;;;5089630;27;45319;-80
2023/06/08 07:45:11;;;;;;;;;40.00;33.75;;;;;;;;5080618;27;45274;-80
2023/06/08 07:47:36;;;;;;;;;37.50;33.50;;;;;;;;5080930;27;45226;-77
2023/06/08 07:50:01;;;;;;;;;41.00;35.00;;;;;;;;5080499;27;45228;-80
2023/06/08 07:52:26;;;;;;;;;39.33;34.33;;;;;;;;5078888;27;47749;-77
2023/06/08 07:54:52;;;;;;;;;35.00;30.67;;;;;;;;5080417;27;45482;-77
2023/06/08 07:57:18;;;;;;;;;35.25;31.50;;;;;;;;5082280;27;45481;-84
2023/06/08 07:59:43;;;;;;;;;31.75;30.50;;;;;;;;5099596;27;45460;-75
2023/06/08 08:02:09;;;;;;;;;33.25;29.50;;;;;;;;5083216;27;45571;-76
2023/06/08 08:04:35;;;;;;;;;38.00;34.00;;;;;;;;5080283;27;45316;-76
2023/06/08 08:07:01;;;;;;;;;42.00;35.00;;;;;;;;5084832;27;45368;-73
2023/06/08 08:09:26;;;;;;;;;35.50;32.25;;;;;;;;5077309;27;45391;-71
2023/06/08 08:11:51;;;;;;;;;36.67;31.67;;;;;;;;5078946;27;47743;-71
2023/06/08 08:14:16;;;;;;;;;31.33;30.67;;;;;;;;5088127;27;45389;-72
2023/06/08 08:16:41;;;;;;;;;32.25;29.25;;;;;;;;5099815;27;45317;-72
2023/06/08 08:19:07;;;;;;;;;41.33;33.67;;;;;;;;5098368;27;45945;-71
2023/06/08 08:21:32;;;;;;;;;36.67;30.00;;;;;;;;5090841;27;46483;-73
2023/06/08 08:23:57;;;;;;;;;42.00;35.33;;;;;;;;5094209;27;45362;-72
2023/06/08 08:26:22;;;;;;;;;39.25;34.50;;;;;;;;5087268;27;45592;-75
2023/06/08 08:28:47;;;;;;;;;38.67;32.00;;;;;;;;5090899;27;45657;-75
2023/06/08 08:31:13;;;;;;;;;29.33;28.67;;;;;;;;5088268;27;47681;-73
2023/06/08 08:33:38;;;;;;;;;27.00;24.00;;;;;;;;5080077;27;47036;-72
2023/06/08 08:36:04;;;;;;;;;31.33;28.33;;;;;;;;5085298;27;45485;-73
2023/06/08 08:38:29;;;;;;;;;40.50;34.25;;;;;;;;5079612;27;45216;-73
2023/06/08 08:41:01;;;;;;;;;33.25;29.75;;;;;;;;5087458;27;45456;-72
2023/06/08 08:43:33;;;;;;;;;26.50;23.50;;;;;;;;5096039;27;45562;-72
2023/06/08 08:45:59;;;;;;;;;36.50;30.50;;;;;;;;5086117;27;45435;-74
2023/06/08 08:48:26;;;;;;;;;33.25;30.00;;;;;;;;5094013;27;45723;-73
2023/06/08 08:50:53;;;;;;;;;30.75;30.50;;;;;;;;5098001;27;46474;-73
2023/06/08 08:53:20;;;;;;;;;35.00;32.50;;;;;;;;5084801;27;45835;-73
2023/06/08 08:55:48;;;;;;;;;37.00;32.50;;;;;;;;5081657;27;46540;-73
2023/06/08 08:58:18;;;;;;;;;34.50;32.00;;;;;;;;5082272;27;46045;-73
2023/06/08 09:00:48;;;;;;;;;36.75;31.75;;;;;;;;5084211;27;47863;-73
2023/06/08 09:03:13;;;;;;;;;34.50;32.25;;;;;;;;5091743;27;45688;-74
2023/06/08 09:05:38;;;;;;;;;34.00;31.33;;;;;;;;5088580;27;45454;-74
2023/06/08 09:08:04;;;;;;;;;32.67;28.33;;;;;;;;5077510;27;46005;-74
2023/06/08 09:10:29;;;;;;;;;34.25;31.00;;;;;;;;5080580;27;45634;-73
2023/06/08 09:12:55;;;;;;;;;30.50;27.25;;;;;;;;5093790;27;45380;-73
2023/06/08 09:15:24;;;;;;;;;33.50;29.75;;;;;;;;5086252;27;45270;-73
2023/06/08 09:17:51;;;;;;;;;31.00;29.50;;;;;;;;5094332;27;45257;-73
2023/06/08 09:20:25;;;;;;;;;32.00;29.50;;;;;;;;5089922;27;45429;-72
2023/06/08 09:22:51;;;;;;;;;28.25;25.75;;;;;;;;5088221;27;45924;-73
2023/06/08 09:25:16;;;;;;;;;28.00;26.00;;;;;;;;5093588;27;45276;-73
2023/06/08 09:27:41;;;;;;;;;32.33;30.00;;;;;;;;5096674;27;45341;-73
2023/06/08 09:30:26;;;;;;;;;27.50;27.50;;;;;;;;5096080;27;46019;-73
2023/06/08 09:32:51;;;;;;;;;26.00;24.25;;;;;;;;5089961;27;45530;-73
2023/06/08 09:35:21;;;;;;;;;30.50;28.25;;;;;;;;5080588;27;45281;-73
2023/06/08 09:37:49;;;;;;;;;29.00;28.25;;;;;;;;5079735;27;47023;-73
2023/06/08 09:40:18;;;;;;;;;28.25;27.25;;;;;;;;5078471;27;47200;-73
2023/06/08 09:42:50;;;;;;;;;29.25;28.25;;;;;;;;5085558;27;45275;-73
2023/06/08 09:45:16;;;;;;;;;24.50;23.75;;;;;;;;5094226;27;45320;-73
2023/06/08 09:47:42;;;;;;;;;29.50;28.50;;;;;;;;5081780;27;45394;-73
2023/06/08 09:50:08;;;;;;;;;29.00;28.25;;;;;;;;5096306;27;45441;-73
2023/06/08 09:52:35;;;;;;;;;28.00;27.25;;;;;;;;5084738;27;45339;-73
2023/06/08 09:55:00;;;;;;;;;32.75;30.75;;;;;;;;5092836;27;45329;-73
2023/06/08 09:57:27;;;;;;;;;30.50;29.75;;;;;;;;5087946;27;46191;-73
2023/06/08 10:00:17;;;;;;;;;25.75;25.75;;;;;;;;5084852;27;45581;-73
2023/06/08 10:02:43;;;;;;;;;23.50;23.50;;;;;;;;5090400;27;45775;-73
2023/06/08 10:05:10;;;;;;;;;25.00;22.33;;;;;;;;5081777;27;45226;-73
2023/06/08 10:07:36;;;;;;;;;25.75;24.50;;;;;;;;5081690;27;45583;-73
2023/06/08 10:10:24;;;;;;;;;26.00;24.50;;;;;;;;5102644;27;46468;-73
2023/06/08 10:12:50;;;;;;;;;26.00;25.50;;;;;;;;5082599;27;45467;-73
2023/06/08 10:15:16;;;;;;;;;28.75;25.25;;;;;;;;5092932;27;45299;-73
2023/06/08 10:17:42;;;;;;;;;25.75;25.25;;;;;;;;5087480;27;45404;-73
2023/06/08 10:20:08;;;;;;;;;29.75;28.50;;;;;;;;5081700;27;45625;-74
2023/06/08 10:22:33;;;;;;;;;27.25;24.50;;;;;;;;5096920;27;45487;-74
2023/06/08 10:24:59;;;;;;;;;25.25;24.25;;;;;;;;5086267;27;45335;-73
2023/06/08 10:27:24;;;;;;;;;27.00;25.50;;;;;;;;5088643;27;46949;-72
2023/06/08 10:29:56;;;;;;;;;26.25;25.00;;;;;;;;5090491;27;45467;-72
2023/06/08 10:32:39;;;;;;;;;24.75;24.25;;;;;;;;5092610;27;45741;-72
2023/06/08 10:35:06;;;;;;;;;25.75;23.75;;;;;;;;5081671;27;45230;-73
2023/06/08 10:37:31;;;;;;;;;25.00;25.00;;;;;;;;5081540;27;46780;-73
2023/06/08 10:39:57;;;;;;;;;25.75;25.50;;;;;;;;5099557;27;45557;-73
2023/06/08 10:42:23;;;;;;;;;24.75;24.50;;;;;;;;5094171;27;45470;-72
2023/06/08 10:44:55;;;;;;;;;25.33;23.33;;;;;;;;5087789;27;45604;-73
2023/06/08 10:47:20;;;;;;;;;28.75;26.00;;;;;;;;5085162;27;45990;-73
2023/06/08 10:49:46;;;;;;;;;27.00;24.67;;;;;;;;5093552;27;45474;-72
2023/06/08 10:52:17;;;;;;;;;26.25;25.25;;;;;;;;5087318;27;45180;-73
2023/06/08 10:54:48;;;;;;;;;28.00;26.75;;;;;;;;5097104;27;45242;-73
2023/06/08 10:57:33;;;;;;;;;25.50;24.75;;;;;;;;5089797;27;45662;-73
2023/06/08 10:59:58;;;;;;;;;28.50;26.75;;;;;;;;5095085;27;46357;-73
2023/06/08 11:02:23;;;;;;;;;27.33;25.67;;;;;;;;5091096;27;45421;-73
2023/06/08 11:04:49;;;;;;;;;26.00;25.00;;;;;;;;5082508;27;45344;-73
2023/06/08 11:07:15;;;;;;;;;22.50;21.75;;;;;;;;5095619;27;45435;-74
2023/06/08 11:09:40;;;;;;;;;26.50;24.00;;;;;;;;5083911;27;45295;-73
2023/06/08 11:12:06;;;;;;;;;25.33;25.33;;;;;;;;5098171;27;45277;-73
2023/06/08 11:14:31;;;;;;;;;25.75;25.00;;;;;;;;5097242;27;45702;-73
2023/06/08 11:16:56;;;;;;;;;26.33;25.00;;;;;;;;5098870;27;45297;-73
2023/06/08 11:19:22;;;;;;;;;27.75;24.50;;;;;;;;5087084;27;47045;-73
2023/06/08 11:21:55;;;;;;;;;26.25;25.00;;;;;;;;5093400;27;45545;-73
2023/06/08 11:24:25;;;;;;;;;25.00;23.75;;;;;;;;5093489;27;45362;-73
2023/06/08 11:26:55;;;;;;;;;29.75;27.50;;;;;;;;5092592;27;45232;-73
2023/06/08 11:29:20;;;;;;;;;23.50;23.25;;;;;;;;5088162;27;46255;-73
2023/06/08 11:31:45;;;;;;;;;25.00;24.50;;;;;;;;5091219;27;45338;-73
2023/06/08 11:34:13;;;;;;;;;21.25;20.25;;;;;;;;5101007;27;45472;-74
2023/06/08 11:36:49;;;;;;;;;19.25;19.25;;;;;;;;5094987;27;45393;-74
2023/06/08 11:39:14;;;;;;;;;19.50;19.50;;;;;;;;5080755;27;47113;-73
2023/06/08 11:41:48;;;;;;;;;25.00;23.67;;;;;;;;5090449;27;45397;-73
2023/06/08 11:44:14;;;;;;;;;20.00;19.25;;;;;;;;5101270;27;45351;-74
2023/06/08 11:46:39;;;;;;;;;21.00;20.50;;;;;;;;5085862;27;47086;-73
2023/06/08 11:49:10;;;;;;;;;21.00;20.00;;;;;;;;5086165;27;46298;-73
2023/06/08 11:51:46;;;;;;;;;21.75;21.50;;;;;;;;5092723;27;45389;-74
2023/06/08 11:54:11;;;;;;;;;24.50;24.25;;;;;;;;5082043;27;45315;-74
2023/06/08 11:56:37;;;;;;;;;20.25;20.25;;;;;;;;5083408;27;45540;-73
2023/06/08 11:59:03;;;;;;;;;20.67;19.67;;;;;;;;5091926;27;45559;-74
2023/06/08 12:01:29;;;;;;;;;20.25;19.50;;;;;;;;5086663;27;45626;-73
2023/06/08 12:03:54;;;;;;;;;20.75;20.25;;;;;;;;5091217;27;45180;-73
2023/06/08 12:06:24;;;;;;;;;21.67;21.33;;;;;;;;5085169;27;45375;-73
2023/06/08 12:08:49;;;;;;;;;22.75;22.00;;;;;;;;5089743;27;45568;-73
2023/06/08 12:11:14;;;;;;;;;18.33;18.33;;;;;;;;5095751;27;45402;-73
2023/06/08 12:13:40;;;;;;;;;22.25;22.25;;;;;;;;5099293;27;45352;-73
2023/06/08 12:16:06;;;;;;;;;23.00;21.75;;;;;;;;5085373;27;46660;-73
2023/06/08 12:18:36;;;;;;;;;26.00;23.25;;;;;;;;5087448;27;45714;-73
2023/06/08 12:21:03;;;;;;;;;20.00;18.25;;;;;;;;5083007;27;45230;-74
2023/06/08 12:23:28;;;;;;;;;15.75;15.75;;;;;;;;5080169;27;45380;-74
2023/06/08 12:25:53;;;;;;;;;21.00;20.00;;;;;;;;5097303;27;45643;-73
2023/06/08 12:28:19;;;;;;;;;18.33;17.67;;;;;;;;5096103;27;46977;-74
2023/06/08 12:30:45;;;;;;;;;18.75;18.50;;;;;;;;5082116;27;45520;-74
2023/06/08 12:33:14;;;;;;;;;21.00;19.25;;;;;;;;5090837;27;45483;-74
2023/06/08 12:35:40;;;;;;;;;21.75;21.50;;;;;;;;5083409;27;45645;-74
2023/06/08 12:38:05;;;;;;;;;18.25;18.25;;;;;;;;5090848;27;47876;-74
2023/06/08 12:40:30;;;;;;;;;21.00;21.00;;;;;;;;5079843;27;45125;-74
2023/06/08 12:42:55;;;;;;;;;20.67;18.67;;;;;;;;5095464;27;45642;-74
2023/06/08 12:45:21;;;;;;;;;19.00;18.00;;;;;;;;5098795;27;45577;-74
2023/06/08 12:47:47;;;;;;;;;20.50;20.00;;;;;;;;5095256;27;45725;-74
2023/06/08 12:50:12;;;;;;;;;19.75;19.75;;;;;;;;5080759;27;45461;-73
2023/06/08 12:52:38;;;;;;;;;23.75;21.75;;;;;;;;5092805;27;45640;-73
2023/06/08 12:55:04;;;;;;;;;18.50;18.25;;;;;;;;5096722;27;45385;-73
2023/06/08 12:57:30;;;;;;;;;20.00;19.00;;;;;;;;5091670;27;46324;-74
2023/06/08 12:59:55;;;;;;;;;20.50;20.00;;;;;;;;5079843;27;45315;-74
2023/06/08 13:02:20;;;;;;;;;20.00;20.00;;;;;;;;5083325;27;45703;-74
2023/06/08 13:04:46;;;;;;;;;22.00;21.67;;;;;;;;5095888;27;45223;-73
2023/06/08 13:07:11;;;;;;;;;18.67;16.33;;;;;;;;5082052;27;45255;-74
2023/06/08 13:09:38;;;;;;;;;19.33;18.33;;;;;;;;5094992;27;45431;-75
2023/06/08 13:12:03;;;;;;;;;17.00;16.00;;;;;;;;5094993;27;45274;-74
2023/06/08 13:14:30;;;;;;;;;17.50;17.25;;;;;;;;5096757;27;45360;-74
2023/06/08 13:16:55;;;;;;;;;17.50;17.25;;;;;;;;5086794;27;46359;-74
2023/06/08 13:19:21;;;;;;;;;19.00;18.33;;;;;;;;5090683;27;45233;-74
2023/06/08 13:21:46;;;;;;;;;20.00;18.50;;;;;;;;5094019;27;45583;-74
2023/06/08 13:24:11;;;;;;;;;19.67;19.67;;;;;;;;5094285;27;45412;-74
2023/06/08 13:26:36;;;;;;;;;21.00;21.00;;;;;;;;5086241;27;45348;-74
2023/06/08 13:29:02;;;;;;;;;18.33;18.33;;;;;;;;5097663;27;45156;-74
2023/06/08 13:31:27;;;;;;;;;23.00;20.00;;;;;;;;5092973;27;45551;-74
2023/06/08 13:33:53;;;;;;;;;15.00;15.00;;;;;;;;5093191;27;45468;-74
2023/06/08 13:36:18;;;;;;;;;18.00;18.00;;;;;;;;5082373;27;45448;-73
2023/06/08 13:38:43;;;;;;;;;17.67;17.00;;;;;;;;5091840;27;45337;-73
2023/06/08 13:41:09;;;;;;;;;20.33;18.67;;;;;;;;5089455;27;45297;-73
2023/06/08 13:43:34;;;;;;;;;17.00;16.25;;;;;;;;5082828;27;45330;-73
2023/06/08 13:46:02;;;;;;;;;18.75;16.50;;;;;;;;5098175;27;45572;-73
2023/06/08 13:48:27;;;;;;;;;20.25;18.00;;;;;;;;5082853;27;45492;-74
2023/06/08 13:50:53;;;;;;;;;20.33;19.33;;;;;;;;5094268;27;45259;-74
2023/06/08 13:53:18;;;;;;;;;18.50;18.50;;;;;;;;5092784;27;46546;-74
2023/06/08 13:55:43;;;;;;;;;21.67;21.33;;;;;;;;5097184;27;45426;-75
2023/06/08 13:58:08;;;;;;;;;20.33;19.33;;;;;;;;5083449;27;45265;-74
2023/06/08 14:00:34;;;;;;;;;17.67;17.67;;;;;;;;5093423;27;45276;-74
2023/06/08 14:03:00;;;;;;;;;20.75;19.75;;;;;;;;5086854;27;45230;-74
2023/06/08 14:05:25;;;;;;;;;19.75;19.75;;;;;;;;5090706;27;46851;-75
2023/06/08 14:07:50;;;;;;;;;21.00;20.25;;;;;;;;5093115;27;45413;-75
2023/06/08 14:10:16;;;;;;;;;22.75;22.50;;;;;;;;5082170;27;45177;-75
2023/06/08 14:12:43;;;;;;;;;19.50;18.00;;;;;;;;5088506;27;47136;-75